createdAt,value
2023-03-06T00:03:59.763Z,99384.00
2023-03-06T00:08:59.241Z,99384.00
2023-03-06T00:13:59.928Z,99378.80
2023-03-06T00:18:58.814Z,99379.40
2023-03-06T00:23:58.158Z,99383.80
2023-03-06T00:28:57.421Z,99381.80
2023-03-06T00:33:56.748Z,99389.20
2023-03-06T00:38:56.331Z,99387.20
2023-03-06T00:43:56.890Z,99380.80
2023-03-06T00:48:55.738Z,99382.40
2023-03-06T00:53:55.252Z,99377.40
2023-03-06T00:58:55.466Z,99374.60
2023-03-06T01:03:57.703Z,99372.00
2023-03-06T01:08:56.599Z,99371.40
2023-03-06T01:13:56.944Z,99371.00
2023-03-06T01:18:55.801Z,99372.60
2023-03-06T01:23:55.986Z,99366.60
2023-03-06T01:28:57.487Z,99366.20
2023-03-06T01:33:56.762Z,99361.80
2023-03-06T01:38:55.961Z,99362.20
2023-03-06T01:43:55.435Z,99364.40
2023-03-06T01:48:59.963Z,99361.00
2023-03-06T01:54:01.796Z,99362.40
2023-03-06T01:59:02.307Z,99354.00
2023-03-06T02:04:02.904Z,99355.20
2023-03-06T02:09:02.590Z,99349.00
2023-03-06T02:14:01.737Z,99350.00
2023-03-06T02:19:03.337Z,99353.80
2023-03-06T02:24:29.033Z,99353.20
2023-03-06T02:29:31.715Z,99347.00
2023-03-06T02:34:57.571Z,99351.60
2023-03-06T02:40:09.388Z,99349.40
2023-03-06T02:45:14.325Z,99346.40
2023-03-06T02:50:15.167Z,99346.00
2023-03-06T02:55:15.948Z,99347.20
2023-03-06T03:00:18.383Z,99346.40
2023-03-06T03:05:17.853Z,99343.20
2023-03-06T03:10:20.344Z,99345.80
2023-03-06T03:15:19.764Z,99342.40
2023-03-06T03:20:24.116Z,99346.20
2023-03-06T03:25:26.024Z,99351.00
2023-03-06T03:30:27.214Z,99342.20
2023-03-06T03:35:27.114Z,99342.40
2023-03-06T03:40:29.707Z,99342.00
2023-03-06T03:45:30.285Z,99335.00
2023-03-06T03:50:30.326Z,99336.60
2023-03-06T03:55:31.178Z,99336.60
2023-03-06T04:00:31.229Z,99333.00
2023-03-06T04:05:37.444Z,99329.00
2023-03-06T04:10:39.978Z,99327.20
2023-03-06T04:15:40.426Z,99325.40
2023-03-06T04:20:41.409Z,99323.40
2023-03-06T04:25:42.082Z,99326.00
2023-03-06T04:30:44.099Z,99320.00
2023-03-06T04:35:44.319Z,99317.80
2023-03-06T04:40:50.333Z,99316.20
2023-03-06T04:45:49.395Z,99317.40
2023-03-06T04:50:48.868Z,99317.00
2023-03-06T04:55:47.928Z,99306.40
2023-03-06T05:00:47.693Z,99301.60
2023-03-06T05:05:46.356Z,99296.60
2023-03-06T05:10:46.074Z,99307.60
2023-03-06T05:15:46.662Z,99300.60
2023-03-06T05:20:45.724Z,99305.60
2023-03-06T05:25:45.653Z,99309.60
2023-03-06T05:30:45.798Z,99306.60
2023-03-06T05:35:50.042Z,99299.00
2023-03-06T05:40:50.153Z,99301.80
2023-03-06T05:45:50.391Z,99305.00
2023-03-06T05:50:58.971Z,99295.40
2023-03-06T05:56:03.994Z,99307.20
2023-03-06T06:01:09.647Z,99311.40
2023-03-06T06:06:12.789Z,99309.40
2023-03-06T06:11:15.051Z,99310.00
2023-03-06T06:16:17.157Z,99319.80
2023-03-06T06:21:17.356Z,99315.00
2023-03-06T06:26:16.806Z,99323.80
2023-03-06T06:31:16.859Z,99322.60
2023-03-06T06:36:24.177Z,99327.20
2023-03-06T06:52:06.279Z,99334.40
2023-03-06T06:57:05.920Z,99337.80
2023-03-06T07:02:06.223Z,99332.80
2023-03-06T07:07:04.791Z,99329.60
2023-03-06T07:12:04.010Z,99328.60
2023-03-06T07:17:03.260Z,99320.20
2023-03-06T07:22:02.851Z,99321.20
2023-03-06T07:27:01.778Z,99320.00
2023-03-06T07:32:01.384Z,99319.80
2023-03-06T07:37:00.308Z,99316.00
2023-03-06T07:42:00.139Z,99325.00
2023-03-06T07:46:59.972Z,99318.20
2023-03-06T07:51:59.400Z,99326.00
2023-03-06T07:56:58.015Z,99324.80
2023-03-06T08:01:59.232Z,99322.60
2023-03-06T08:07:00.055Z,99319.20
2023-03-06T08:12:00.145Z,99327.40
2023-03-06T08:17:00.896Z,99327.20
2023-03-06T08:21:59.842Z,99331.20
2023-03-06T08:26:59.001Z,99326.00
2023-03-06T08:31:58.693Z,99320.00
2023-03-06T08:36:57.718Z,99327.80
2023-03-06T08:41:57.144Z,99322.60
2023-03-06T08:46:56.569Z,99321.40
2023-03-06T08:51:56.285Z,99320.00
2023-03-06T08:56:55.555Z,99314.80
2023-03-06T09:01:55.360Z,99313.20
2023-03-06T09:06:55.658Z,99310.80
2023-03-06T09:11:56.522Z,99313.40
2023-03-06T09:16:56.089Z,99314.00
2023-03-06T09:21:55.429Z,99313.60
2023-03-06T09:26:56.158Z,99317.80
2023-03-06T09:31:55.367Z,99310.20
2023-03-06T09:36:57.062Z,99312.80
2023-03-06T09:41:58.990Z,99310.00
2023-03-06T09:47:16.935Z,99312.60
2023-03-06T09:52:36.222Z,99310.40
2023-03-06T09:57:39.565Z,99298.60
2023-03-06T10:02:45.494Z,99290.20
2023-03-06T10:07:54.414Z,99293.40
2023-03-06T10:13:04.617Z,99283.40
2023-03-06T10:18:07.427Z,99278.80
2023-03-06T10:23:26.557Z,99270.60
2023-03-06T10:28:36.975Z,99274.00
2023-03-06T10:33:54.770Z,99269.40
2023-03-06T10:38:54.605Z,99267.00
2023-03-06T10:49:31.566Z,99264.40
2023-03-06T10:54:32.595Z,99264.00
2023-03-06T10:59:33.204Z,99255.40
2023-03-06T11:04:35.988Z,99258.00
2023-03-06T11:09:36.360Z,99249.40
2023-03-06T11:14:36.311Z,99250.40
2023-03-06T11:19:35.977Z,99237.40
2023-03-06T11:24:43.846Z,99242.20
2023-03-06T11:29:48.030Z,99227.40
2023-03-06T11:34:53.766Z,99222.00
2023-03-06T11:40:05.423Z,99212.60
2023-03-06T11:45:26.039Z,99212.00
2023-03-06T11:50:36.003Z,99211.20
2023-03-06T11:56:23.008Z,99204.60
2023-03-06T12:01:33.866Z,99198.60
2023-03-06T12:06:49.777Z,99192.40
2023-03-06T12:11:59.677Z,99195.60
2023-03-06T12:17:32.979Z,99194.00
2023-03-06T12:22:57.839Z,99195.20
2023-03-06T12:28:24.691Z,99186.60
2023-03-06T12:33:37.886Z,99180.80
2023-03-06T12:39:17.780Z,99184.20
2023-03-06T12:45:28.619Z,99179.40
2023-03-06T12:50:31.519Z,99177.00
2023-03-06T12:55:33.249Z,99166.20
2023-03-06T13:01:07.586Z,99172.00
2023-03-06T13:06:34.139Z,99168.40
2023-03-06T13:12:00.190Z,99160.80
2023-03-06T13:17:39.268Z,99160.20
2023-03-06T13:22:38.655Z,99147.60
2023-03-06T13:28:06.067Z,99147.80
2023-03-06T13:33:26.346Z,99147.20
2023-03-06T13:38:59.749Z,99139.60
2023-03-06T13:44:02.206Z,99133.20
2023-03-06T13:49:25.239Z,99131.60
2023-03-06T13:54:48.243Z,99128.80
2023-03-06T14:00:23.249Z,99122.80
2023-03-06T14:05:23.135Z,99130.20
2023-03-06T14:10:32.538Z,99124.00
2023-03-06T14:15:43.430Z,99119.60
2023-03-06T14:20:50.496Z,99119.80
2023-03-06T14:25:56.223Z,99115.80
2023-03-06T14:30:58.265Z,99112.40
2023-03-06T14:36:09.714Z,99110.60
2023-03-06T14:41:13.024Z,99103.00
2023-03-06T14:46:24.659Z,99100.80
2023-03-06T14:51:26.991Z,99105.60
2023-03-06T14:56:29.288Z,99093.40
2023-03-06T15:01:36.289Z,99093.60
2023-03-06T15:06:43.595Z,99097.00
2023-03-06T15:17:32.585Z,99096.60
2023-03-06T15:22:37.982Z,99093.80
2023-03-06T15:27:37.722Z,99091.60
2023-03-06T15:32:42.567Z,99083.60
2023-03-06T15:37:42.013Z,99092.00
2023-03-06T15:42:43.628Z,99088.40
2023-03-06T15:47:45.142Z,99085.60
2023-03-06T15:52:44.993Z,99081.40
2023-03-06T15:57:52.245Z,99083.00
2023-03-06T16:02:54.102Z,99086.80
2023-03-06T16:07:53.362Z,99087.80
2023-03-06T16:12:57.039Z,99089.00
2023-03-06T16:17:56.324Z,99090.60
2023-03-06T16:22:56.093Z,99092.80
2023-03-06T16:27:59.595Z,99094.40
2023-03-06T16:32:59.223Z,99096.80
2023-03-06T16:37:58.835Z,99091.20
2023-03-06T16:42:59.133Z,99083.80
2023-03-06T16:47:59.433Z,99084.80
2023-03-06T16:53:01.033Z,99089.60
2023-03-06T16:58:00.583Z,99091.40
2023-03-06T17:03:00.869Z,99086.80
2023-03-06T17:08:01.157Z,99085.20
2023-03-06T17:13:03.321Z,99093.20
2023-03-06T17:18:03.881Z,99090.20
2023-03-06T17:23:04.889Z,99090.40
2023-03-06T17:28:05.069Z,99094.00
2023-03-06T17:33:07.990Z,99090.20
2023-03-06T17:38:07.276Z,99091.40
2023-03-06T17:43:06.119Z,99093.00
2023-03-06T17:48:05.608Z,99091.00
2023-03-06T17:53:06.036Z,99093.00
2023-03-06T17:58:05.253Z,99097.80
2023-03-06T18:03:05.106Z,99099.40
2023-03-06T18:08:05.055Z,99095.20
2023-03-06T18:13:03.664Z,99091.00
2023-03-06T18:18:02.805Z,99090.80
2023-03-06T18:23:03.841Z,99082.60
2023-03-06T18:28:03.219Z,99084.80
2023-03-06T18:33:02.546Z,99079.40
2023-03-06T18:38:02.677Z,99082.20
2023-03-06T18:43:02.036Z,99087.80
2023-03-06T18:48:00.680Z,99086.20
2023-03-06T18:52:59.481Z,99090.40
2023-03-06T18:58:00.305Z,99086.40
2023-03-06T19:02:59.714Z,99079.00
2023-03-06T19:07:59.525Z,99075.80
2023-03-06T19:12:59.057Z,99074.20
2023-03-06T19:17:58.754Z,99069.20
2023-03-06T19:22:58.535Z,99074.80
2023-03-06T19:27:58.308Z,99070.80
2023-03-06T19:32:58.437Z,99071.00
2023-03-06T19:37:57.873Z,99066.20
2023-03-06T19:43:00.908Z,99065.00
2023-03-06T19:48:01.878Z,99064.00
2023-03-06T19:53:02.646Z,99061.60
2023-03-06T19:58:02.768Z,99056.80
2023-03-06T20:03:02.882Z,99053.80
2023-03-06T20:08:02.619Z,99064.00
2023-03-06T20:13:02.376Z,99059.80
2023-03-06T20:18:04.256Z,99062.20
2023-03-06T20:23:04.812Z,99061.80
2023-03-06T20:28:04.476Z,99066.60
2023-03-06T20:33:04.011Z,99069.40
2023-03-06T20:38:03.202Z,99055.80
2023-03-06T20:43:02.247Z,99063.60
2023-03-06T20:48:01.348Z,99065.80
2023-03-06T20:53:02.366Z,99065.20
2023-03-06T20:58:02.011Z,99063.80
2023-03-06T21:03:01.369Z,99061.40
2023-03-06T21:08:00.997Z,99063.00
2023-03-06T21:13:00.526Z,99059.60
2023-03-06T21:17:59.765Z,99055.00
2023-03-06T21:23:02.073Z,99058.60
2023-03-06T21:28:01.179Z,99056.20
2023-03-06T21:33:00.779Z,99052.60
2023-03-06T21:37:59.929Z,99054.00
2023-03-06T21:42:59.550Z,99052.00
2023-03-06T21:47:59.299Z,99047.80
2023-03-06T21:53:00.878Z,99055.20
2023-03-06T21:58:00.358Z,99053.60
2023-03-06T22:02:59.919Z,99057.40
2023-03-06T22:07:59.261Z,99059.40
2023-03-06T22:12:58.765Z,99066.80
2023-03-06T22:17:58.020Z,99073.80
2023-03-06T22:22:56.890Z,99076.60
2023-03-06T22:27:55.923Z,99077.20
2023-03-06T22:32:57.059Z,99078.60
2023-03-06T22:37:56.500Z,99076.80
2023-03-06T22:42:56.008Z,99076.60
2023-03-06T22:48:02.384Z,99073.40
2023-03-06T22:53:08.625Z,99085.40
2023-03-06T22:58:07.884Z,99090.80
2023-03-06T23:03:07.463Z,99094.80
2023-03-06T23:08:07.097Z,99099.00
2023-03-06T23:13:05.608Z,99100.80
2023-03-06T23:18:24.049Z,99108.20
2023-03-06T23:23:44.316Z,99098.00
2023-03-06T23:28:44.530Z,99106.00
2023-03-06T23:33:44.266Z,99101.80
2023-03-06T23:38:44.312Z,99107.60
2023-03-06T23:43:44.073Z,99109.60
2023-03-06T23:48:46.153Z,99120.20
2023-03-06T23:53:45.306Z,99120.60
2023-03-06T23:58:45.672Z,99121.80
